Time;durP1;ratioP1;P1;durP2;ratioP2;P2;SDS_P1;SDS_P2;PMS_P1;PMS_P2;Temp;Humidity;BMP_temperature;BMP_pressure;BME280_temperature;BME280_humidity;BME280_pressure;Samples;Min_cycle;Max_cycle;Signal;HPM_P1;HPM_P2
2022/03/24 00:02:21;;;;;;;40.50;21.20;;;8.30;94.20;;;;;;5038585;28;20053;-64
2022/03/24 00:04:48;;;;;;;39.75;19.25;;;8.30;94.10;;;;;;5029179;28;20049;-55
2022/03/24 00:07:15;;;;;;;56.22;19.60;;;8.30;94.30;;;;;;5039246;28;20144;-56
2022/03/24 00:09:43;;;;;;;44.70;20.65;;;8.30;94.50;;;;;;5032934;28;20088;-56
2022/03/24 00:12:10;;;;;;;45.60;20.25;;;8.20;94.60;;;;;;5040821;28;20089;-54
2022/03/24 00:14:37;;;;;;;39.33;17.80;;;8.20;95.00;;;;;;5035169;28;20094;-56
2022/03/24 00:17:04;;;;;;;36.70;18.73;;;8.20;94.80;;;;;;5038583;28;20067;-55
2022/03/24 00:19:31;;;;;;;45.88;19.17;;;8.10;94.90;;;;;;5032742;28;20044;-52
2022/03/24 00:21:58;;;;;;;42.25;19.23;;;8.00;95.00;;;;;;5034540;28;20096;-53
2022/03/24 00:24:56;;;;;;;39.33;19.13;;;8.10;95.10;;;;;;5031084;28;20105;-51
2022/03/24 00:27:23;;;;;;;43.33;18.45;;;8.10;96.50;;;;;;5036912;28;20049;-54
2022/03/24 00:29:50;;;;;;;40.20;17.20;;;8.10;94.90;;;;;;5031523;28;20044;-55
2022/03/24 00:32:17;;;;;;;29.33;15.68;;;8.10;94.80;;;;;;5031035;28;20163;-55
2022/03/24 00:34:45;;;;;;;29.95;13.65;;;8.00;94.30;;;;;;5029784;28;20094;-55
2022/03/24 00:37:12;;;;;;;26.70;13.45;;;8.00;93.90;;;;;;5032486;28;20107;-53
2022/03/24 00:39:40;;;;;;;26.25;13.77;;;7.90;93.80;;;;;;5027941;28;20217;-50
2022/03/24 00:42:08;;;;;;;23.58;13.18;;;7.90;93.70;;;;;;5044070;28;20103;-53
2022/03/24 00:44:35;;;;;;;31.90;15.07;;;7.80;93.60;;;;;;5028827;28;20080;-53
2022/03/24 00:47:06;;;;;;;26.65;14.40;;;7.80;93.60;;;;;;5035673;28;20045;-56
2022/03/24 00:49:33;;;;;;;24.75;14.85;;;7.70;93.80;;;;;;5035472;28;20076;-55
2022/03/24 00:51:59;;;;;;;32.13;14.88;;;7.70;93.50;;;;;;5038048;28;20516;-53
2022/03/24 00:54:26;;;;;;;34.17;15.93;;;7.70;93.80;;;;;;5027981;28;20177;-54
2022/03/24 00:56:53;;;;;;;32.65;16.20;;;7.70;94.20;;;;;;5034292;28;20117;-55
2022/03/24 00:59:22;;;;;;;25.00;14.63;;;7.70;94.30;;;;;;5036369;28;20041;-55
2022/03/24 01:01:49;;;;;;;29.65;15.38;;;7.60;94.50;;;;;;5033024;28;20081;-55
2022/03/24 01:04:16;;;;;;;32.38;16.00;;;7.60;94.90;;;;;;5027069;28;20050;-54
2022/03/24 01:06:46;;;;;;;32.90;15.45;;;7.60;95.10;;;;;;5033731;28;20093;-56
2022/03/24 01:09:13;;;;;;;28.15;14.32;;;7.60;95.40;;;;;;5037768;28;20160;-56
2022/03/24 01:11:40;;;;;;;40.33;16.40;;;7.60;95.10;;;;;;5035552;28;20103;-57
2022/03/24 01:14:07;;;;;;;46.25;16.52;;;7.60;95.00;;;;;;5031002;28;20050;-57
2022/03/24 01:16:35;;;;;;;32.97;15.07;;;7.60;95.20;;;;;;5033828;28;20037;-56
2022/03/24 01:19:04;;;;;;;30.45;15.40;;;7.40;95.50;;;;;;5035738;28;20048;-53
2022/03/24 01:21:31;;;;;;;34.05;16.77;;;7.30;95.70;;;;;;5035789;28;20110;-56
2022/03/24 01:23:59;;;;;;;32.25;15.00;;;7.30;95.70;;;;;;5038537;28;20056;-55
2022/03/24 01:26:26;;;;;;;36.60;15.15;;;7.30;95.80;;;;;;5032411;28;20049;-56
2022/03/24 01:28:53;;;;;;;29.38;15.60;;;7.30;95.80;;;;;;5048197;28;20052;-54
2022/03/24 01:31:20;;;;;;;31.27;14.98;;;7.30;95.80;;;;;;5036498;28;20056;-54
2022/03/24 01:33:47;;;;;;;36.35;18.83;;;7.40;95.70;;;;;;5038033;28;20049;-55
2022/03/24 01:36:16;;;;;;;32.15;14.85;;;7.30;95.60;;;;;;5038435;28;20049;-59
2022/03/24 01:38:43;;;;;;;32.78;14.05;;;7.30;95.50;;;;;;5036110;28;20055;-55
2022/03/24 01:41:09;;;;;;;28.70;14.45;;;7.30;95.80;;;;;;5033161;28;20087;-55
2022/03/24 01:43:36;;;;;;;30.02;14.40;;;7.30;95.60;;;;;;5036396;28;20108;-54
2022/03/24 01:46:04;;;;;;;28.17;13.98;;;7.30;95.60;;;;;;5032606;28;20045;-55
2022/03/24 01:48:31;;;;;;;28.13;13.40;;;7.30;95.70;;;;;;5044248;28;20433;-50
2022/03/24 01:50:57;;;;;;;25.55;12.73;;;7.30;95.60;;;;;;5032120;28;20741;-55
2022/03/24 01:53:24;;;;;;;27.67;12.80;;;7.20;95.60;;;;;;5041671;28;20073;-55
2022/03/24 01:55:54;;;;;;;25.30;13.00;;;7.10;95.80;;;;;;5038740;28;20053;-56
2022/03/24 01:58:22;;;;;;;26.83;13.65;;;7.00;95.50;;;;;;5040034;28;20044;-55
2022/03/24 02:00:48;;;;;;;24.85;14.27;;;7.00;95.80;;;;;;5036491;28;20048;-55
2022/03/24 02:03:16;;;;;;;23.85;12.70;;;7.00;95.60;;;;;;5035824;28;20037;-54
2022/03/24 02:05:43;;;;;;;29.10;14.45;;;6.90;95.60;;;;;;5035161;28;20132;-56
2022/03/24 02:08:10;;;;;;;26.15;12.63;;;7.00;95.70;;;;;;4685630;28;10000078;-56
2022/03/24 02:10:37;;;;;;;26.15;13.13;;;6.90;95.80;;;;;;5046201;28;20052;-56
2022/03/24 02:13:04;;;;;;;23.05;11.93;;;6.90;96.00;;;;;;5033320;28;20041;-55
2022/03/24 02:15:32;;;;;;;27.10;13.68;;;6.90;96.00;;;;;;5046314;28;20041;-53
2022/03/24 02:17:59;;;;;;;28.65;13.45;;;6.90;96.00;;;;;;5045101;28;20048;-54
2022/03/24 02:20:28;;;;;;;27.98;12.20;;;6.70;96.00;;;;;;5037915;28;20057;-55
2022/03/24 02:22:55;;;;;;;23.23;11.85;;;6.60;96.10;;;;;;5044771;28;20053;-55
2022/03/24 02:25:23;;;;;;;28.10;13.75;;;6.60;96.30;;;;;;5036070;28;20091;-55
2022/03/24 02:27:52;;;;;;;24.77;14.13;;;6.60;96.40;;;;;;5040585;28;20045;-54
2022/03/24 02:30:19;;;;;;;33.70;12.68;;;6.50;96.60;;;;;;5035146;28;20045;-56
2022/03/24 02:32:46;;;;;;;25.27;13.48;;;6.50;96.50;;;;;;5039232;28;20048;-58
2022/03/24 02:35:13;;;;;;;26.27;13.13;;;6.50;96.40;;;;;;5037334;28;20511;-56
2022/03/24 02:37:40;;;;;;;32.05;13.95;;;6.60;96.50;;;;;;5044452;28;20103;-55
2022/03/24 02:40:07;;;;;;;28.27;12.98;;;6.60;96.30;;;;;;5033621;28;20049;-56
2022/03/24 02:42:34;;;;;;;25.85;13.10;;;6.50;96.30;;;;;;5043510;28;20045;-54
2022/03/24 02:45:06;;;;;;;24.45;13.00;;;6.50;96.40;;;;;;5034035;28;20049;-54
2022/03/24 02:47:33;;;;;;;22.80;12.65;;;6.30;96.40;;;;;;5048968;28;20044;-55
2022/03/24 02:50:00;;;;;;;25.17;13.35;;;6.20;96.70;;;;;;5036668;28;20089;-57
2022/03/24 02:52:27;;;;;;;27.33;12.95;;;6.20;96.80;;;;;;5045427;28;20080;-56
2022/03/24 02:54:55;;;;;;;27.38;12.75;;;6.10;96.90;;;;;;5040856;28;20183;-56
2022/03/24 02:57:22;;;;;;;25.50;13.05;;;6.10;97.00;;;;;;5044057;28;20060;-54
2022/03/24 02:59:48;;;;;;;29.30;12.90;;;6.10;97.00;;;;;;5041029;28;20037;-53
2022/03/24 03:02:17;;;;;;;29.23;12.25;;;6.20;97.00;;;;;;5041614;28;20091;-55
2022/03/24 03:04:45;;;;;;;32.30;14.23;;;6.20;96.90;;;;;;5041872;28;20585;-56
2022/03/24 03:07:13;;;;;;;30.83;12.90;;;6.20;96.90;;;;;;5040177;28;20552;-54
2022/03/24 03:09:40;;;;;;;26.83;13.00;;;6.10;97.00;;;;;;5033426;28;20136;-57
2022/03/24 03:12:09;;;;;;;25.25;12.80;;;6.10;97.00;;;;;;5037232;28;20232;-56
2022/03/24 03:14:36;;;;;;;22.52;12.18;;;6.10;97.00;;;;;;5033719;28;20060;-60
2022/03/24 03:17:03;;;;;;;26.95;13.55;;;6.00;97.00;;;;;;5037314;28;20049;-56
2022/03/24 03:19:32;;;;;;;22.88;11.82;;;6.00;97.00;;;;;;5043701;28;20099;-54
2022/03/24 03:21:59;;;;;;;30.55;12.68;;;6.00;97.00;;;;;;5035118;28;20040;-58
2022/03/24 03:24:26;;;;;;;26.08;13.15;;;5.90;97.40;;;;;;5038772;28;20052;-54
2022/03/24 03:26:53;;;;;;;24.73;13.27;;;5.90;97.10;;;;;;5035345;28;20555;-55
2022/03/24 03:29:22;;;;;;;23.40;12.88;;;5.90;97.10;;;;;;5036224;28;20504;-54
2022/03/24 03:31:52;;;;;;;31.83;13.48;;;5.90;97.00;;;;;;5040534;28;20099;-55
2022/03/24 03:34:19;;;;;;;19.02;11.55;;;5.90;97.10;;;;;;5029247;28;20060;-54
2022/03/24 03:36:46;;;;;;;22.25;11.60;;;5.90;97.10;;;;;;5041048;28;20504;-56
2022/03/24 03:39:12;;;;;;;25.38;13.00;;;5.80;97.20;;;;;;5030835;28;20493;-56
2022/03/24 03:41:39;;;;;;;24.23;12.63;;;5.80;97.20;;;;;;5035772;28;20111;-55
2022/03/24 03:44:06;;;;;;;21.55;12.02;;;5.80;97.20;;;;;;5032087;28;20081;-55
2022/03/24 03:46:34;;;;;;;20.50;12.82;;;5.80;97.30;;;;;;5034412;28;20045;-54
2022/03/24 03:49:01;;;;;;;29.75;13.05;;;5.90;97.30;;;;;;5034700;28;20037;-55
2022/03/24 03:51:29;;;;;;;20.58;11.90;;;5.80;97.20;;;;;;5032583;28;20114;-56
2022/03/24 03:53:56;;;;;;;21.98;11.85;;;5.80;97.20;;;;;;5039152;28;20107;-55
2022/03/24 03:56:23;;;;;;;20.73;12.38;;;5.80;97.10;;;;;;5036360;28;20109;-55
2022/03/24 03:58:50;;;;;;;26.75;13.10;;;5.70;97.00;;;;;;5047426;28;20083;-55
2022/03/24 04:01:16;;;;;;;23.70;11.23;;;5.60;97.20;;;;;;5037423;28;20140;-56
2022/03/24 04:03:44;;;;;;;25.08;11.88;;;5.60;97.30;;;;;;5032826;28;20046;-55
2022/03/24 04:06:12;;;;;;;25.08;12.48;;;5.60;97.40;;;;;;5031321;28;20049;-54
2022/03/24 04:08:40;;;;;;;25.70;12.55;;;5.60;97.40;;;;;;5033387;28;20049;-54
2022/03/24 04:11:07;;;;;;;20.23;10.93;;;5.50;97.60;;;;;;5037645;28;20425;-53
2022/03/24 04:13:35;;;;;;;22.95;12.07;;;5.50;97.60;;;;;;5039348;28;20048;-54
2022/03/24 04:16:02;;;;;;;20.90;12.05;;;5.50;97.60;;;;;;5027383;28;20057;-54
2022/03/24 04:18:29;;;;;;;23.20;12.90;;;5.50;97.60;;;;;;5043444;28;20052;-55
2022/03/24 04:20:56;;;;;;;22.48;11.32;;;5.40;97.70;;;;;;5047207;28;20078;-54
2022/03/24 04:23:23;;;;;;;19.42;11.30;;;5.40;97.70;;;;;;5039428;28;20045;-56
2022/03/24 04:25:51;;;;;;;23.75;11.98;;;5.40;97.80;;;;;;5046558;28;20068;-54
2022/03/24 04:28:18;;;;;;;22.35;11.13;;;5.30;97.80;;;;;;5044813;28;20037;-54
2022/03/24 04:30:44;;;;;;;27.30;10.55;;;5.30;97.80;;;;;;5043980;28;20106;-53
2022/03/24 04:33:11;;;;;;;24.58;12.18;;;5.30;97.80;;;;;;5035093;28;20049;-55
2022/03/24 04:35:38;;;;;;;22.20;11.18;;;5.30;97.80;;;;;;5032837;28;20472;-58
2022/03/24 04:38:05;;;;;;;24.50;12.32;;;5.30;97.70;;;;;;5043736;28;20749;-55
2022/03/24 04:40:32;;;;;;;19.13;10.27;;;5.30;97.70;;;;;;5035427;28;20037;-53
2022/03/24 04:42:58;;;;;;;19.75;10.57;;;5.30;97.70;;;;;;5033080;28;20080;-54
2022/03/24 04:45:27;;;;;;;18.95;11.45;;;5.20;97.80;;;;;;5037273;28;20052;-52
2022/03/24 04:47:54;;;;;;;21.92;10.95;;;5.10;97.90;;;;;;5044012;28;20049;-56
2022/03/24 04:50:21;;;;;;;24.23;12.32;;;5.10;97.90;;;;;;5039677;28;20077;-52
2022/03/24 04:52:48;;;;;;;24.70;12.05;;;5.10;98.00;;;;;;5035105;28;20042;-53
2022/03/24 04:55:15;;;;;;;23.15;10.65;;;5.20;98.00;;;;;;5041892;28;20520;-54
2022/03/24 04:57:42;;;;;;;23.58;11.77;;;5.10;98.00;;;;;;5032141;28;20100;-55
2022/03/24 05:00:10;;;;;;;26.35;12.77;;;5.10;97.90;;;;;;5045696;28;20099;-56
2022/03/24 05:02:37;;;;;;;18.23;10.80;;;5.00;97.90;;;;;;5031771;28;20045;-55
2022/03/24 05:05:05;;;;;;;19.45;11.02;;;5.00;97.80;;;;;;5038288;28;20045;-54
2022/03/24 05:07:32;;;;;;;26.58;13.00;;;5.00;97.80;;;;;;5050420;28;20198;-52
2022/03/24 05:09:59;;;;;;;22.30;11.70;;;4.90;97.90;;;;;;5037203;28;20050;-54
2022/03/24 05:12:26;;;;;;;20.75;11.45;;;4.90;98.10;;;;;;5044342;28;20088;-55
2022/03/24 05:14:53;;;;;;;21.67;10.32;;;5.00;98.20;;;;;;5033935;28;20154;-54
2022/03/24 05:17:19;;;;;;;25.40;12.63;;;5.10;98.10;;;;;;5047302;28;20077;-55
2022/03/24 05:19:48;;;;;;;21.80;11.20;;;5.00;98.10;;;;;;5041073;28;20088;-51
2022/03/24 05:22:16;;;;;;;18.25;10.77;;;5.10;98.20;;;;;;5043774;28;20053;-51
2022/03/24 05:24:43;;;;;;;21.38;10.63;;;5.00;98.20;;;;;;5036312;28;20094;-53
2022/03/24 05:27:10;;;;;;;25.88;12.18;;;5.00;98.10;;;;;;5036943;28;20045;-53
2022/03/24 05:29:38;;;;;;;25.67;11.95;;;4.90;98.30;;;;;;5035268;28;20072;-54
2022/03/24 05:32:05;;;;;;;23.40;12.07;;;4.90;98.30;;;;;;5040416;28;20053;-55
2022/03/24 05:34:32;;;;;;;28.67;12.80;;;4.90;98.60;;;;;;5033653;28;20072;-55
2022/03/24 05:36:59;;;;;;;18.73;10.65;;;4.90;98.30;;;;;;5040971;28;20390;-55
2022/03/24 05:39:26;;;;;;;25.85;11.27;;;4.80;98.20;;;;;;5033760;28;20095;-56
2022/03/24 05:41:53;;;;;;;24.35;11.23;;;4.70;98.20;;;;;;5036869;28;20049;-57
2022/03/24 05:44:20;;;;;;;19.95;10.05;;;4.70;98.40;;;;;;5039383;28;20068;-56
2022/03/24 05:46:47;;;;;;;33.10;11.98;;;4.70;98.40;;;;;;5037674;28;20052;-54
2022/03/24 05:49:19;;;;;;;20.77;11.57;;;4.60;98.60;;;;;;5039758;28;20453;-53
2022/03/24 05:51:46;;;;;;;26.33;12.13;;;4.60;98.80;;;;;;5035924;28;20496;-57
2022/03/24 05:54:13;;;;;;;22.58;10.90;;;4.60;98.80;;;;;;5048848;28;20048;-55
2022/03/24 05:56:41;;;;;;;21.23;11.50;;;4.60;98.80;;;;;;5035596;28;20058;-55
2022/03/24 05:59:08;;;;;;;22.08;12.00;;;4.80;98.90;;;;;;5041885;28;20084;-56
2022/03/24 06:01:35;;;;;;;21.08;11.13;;;4.70;98.80;;;;;;5037089;28;20084;-56
2022/03/24 06:04:02;;;;;;;21.65;12.23;;;4.70;98.80;;;;;;5047067;28;20041;-56
2022/03/24 06:06:34;;;;;;;22.38;11.55;;;4.70;98.80;;;;;;5035585;28;20041;-56
2022/03/24 06:09:04;;;;;;;20.13;10.82;;;4.70;98.80;;;;;;5040373;28;20041;-56
2022/03/24 06:11:34;;;;;;;18.55;10.15;;;4.70;98.80;;;;;;5038006;28;20042;-55
2022/03/24 06:14:07;;;;;;;23.58;11.85;;;4.70;98.90;;;;;;5040897;28;20125;-55
2022/03/24 06:16:35;;;;;;;19.90;10.25;;;4.60;98.80;;;;;;5036796;28;20052;-57
2022/03/24 06:19:02;;;;;;;16.83;10.65;;;4.60;98.90;;;;;;5035779;28;20056;-55
2022/03/24 06:21:29;;;;;;;24.13;11.80;;;4.60;99.00;;;;;;5035527;28;20052;-54
2022/03/24 06:23:59;;;;;;;21.95;11.50;;;4.60;98.90;;;;;;5038543;28;20508;-55
2022/03/24 06:26:25;;;;;;;21.98;11.57;;;4.70;98.90;;;;;;5032321;28;20050;-55
2022/03/24 06:28:53;;;;;;;23.35;12.00;;;4.70;98.70;;;;;;5039203;28;20103;-55
2022/03/24 06:31:20;;;;;;;19.63;10.95;;;4.70;98.90;;;;;;5031444;28;20112;-54
2022/03/24 06:33:48;;;;;;;23.20;13.68;;;4.60;99.00;;;;;;5042350;28;20259;-57
2022/03/24 06:36:15;;;;;;;20.02;10.90;;;4.60;99.00;;;;;;5037839;28;20386;-57
2022/03/24 06:38:42;;;;;;;24.33;11.52;;;4.70;99.00;;;;;;5040478;28;20049;-57
2022/03/24 06:41:08;;;;;;;26.58;11.20;;;4.80;98.90;;;;;;5035303;28;20057;-57
2022/03/24 06:43:36;;;;;;;20.33;11.25;;;4.90;98.80;;;;;;5040776;28;20045;-57
2022/03/24 06:46:06;;;;;;;23.20;13.77;;;4.90;98.80;;;;;;5030274;28;20103;-58
2022/03/24 06:48:33;;;;;;;27.55;10.80;;;5.00;98.60;;;;;;5040560;28;20045;-56
2022/03/24 06:51:00;;;;;;;22.48;11.60;;;5.00;98.60;;;;;;5029528;28;20358;-58
2022/03/24 06:53:26;;;;;;;16.48;9.27;;;5.00;98.40;;;;;;5034245;28;20073;-58
2022/03/24 06:55:53;;;;;;;24.88;10.85;;;5.10;98.30;;;;;;5037985;28;20045;-57
2022/03/24 06:58:22;;;;;;;24.05;9.40;;;5.10;98.30;;;;;;5038506;28;20045;-56
2022/03/24 07:00:49;;;;;;;23.23;7.75;;;5.20;98.10;;;;;;5031400;28;20256;-55
2022/03/24 07:03:16;;;;;;;16.50;7.85;;;5.20;97.80;;;;;;5037721;28;20057;-54
2022/03/24 07:05:43;;;;;;;19.92;7.60;;;5.30;97.70;;;;;;5036157;28;20057;-59
2022/03/24 07:08:09;;;;;;;22.25;7.80;;;5.70;97.70;;;;;;5032282;28;20049;-54
2022/03/24 07:10:36;;;;;;;17.92;8.32;;;5.50;97.50;;;;;;5038145;28;20072;-61
2022/03/24 07:13:03;;;;;;;11.88;7.10;;;5.50;97.40;;;;;;5036164;28;20056;-56
2022/03/24 07:15:31;;;;;;;16.25;6.22;;;5.60;97.20;;;;;;5036079;28;20077;-56
2022/03/24 07:17:58;;;;;;;13.65;6.85;;;5.70;97.00;;;;;;5032978;28;20045;-54
2022/03/24 07:20:25;;;;;;;10.90;5.82;;;5.80;97.00;;;;;;5036293;28;20045;-58
2022/03/24 07:22:51;;;;;;;17.60;7.40;;;5.90;96.90;;;;;;5043706;28;20248;-58
2022/03/24 07:25:18;;;;;;;14.27;6.93;;;6.00;96.70;;;;;;5037700;28;20052;-59
2022/03/24 07:27:45;;;;;;;19.63;8.23;;;6.00;96.90;;;;;;5032169;28;20099;-55
2022/03/24 07:30:12;;;;;;;18.42;7.57;;;6.10;96.50;;;;;;5038939;28;20076;-57
2022/03/24 07:32:39;;;;;;;20.27;8.15;;;6.30;96.50;;;;;;5029566;28;20057;-57
2022/03/24 07:35:13;;;;;;;22.52;10.38;;;6.30;96.50;;;;;;5032375;28;20064;-56
2022/03/24 07:37:41;;;;;;;18.13;10.48;;;6.50;96.40;;;;;;5026874;28;20057;-57
2022/03/24 07:40:09;;;;;;;16.52;9.23;;;6.50;96.40;;;;;;5030298;28;20588;-56
2022/03/24 07:42:37;;;;;;;21.10;8.65;;;6.60;96.20;;;;;;5034765;28;20119;-58
2022/03/24 07:45:07;;;;;;;21.98;11.73;;;6.70;96.20;;;;;;5032629;28;20468;-54
2022/03/24 07:47:35;;;;;;;26.23;12.40;;;6.80;95.90;;;;;;5034384;28;20069;-57
2022/03/24 07:50:03;;;;;;;18.85;10.35;;;6.90;96.00;;;;;;5031263;28;20395;-57
2022/03/24 07:52:32;;;;;;;16.23;10.60;;;7.00;96.00;;;;;;5029838;28;20053;-57
2022/03/24 07:55:02;;;;;;;24.23;11.82;;;7.10;96.10;;;;;;5033440;28;20041;-57
2022/03/24 07:57:32;;;;;;;26.55;11.73;;;7.20;96.00;;;;;;5033266;28;20115;-57
2022/03/24 07:59:59;;;;;;;28.33;12.30;;;7.30;96.00;;;;;;5033527;28;20046;-56
2022/03/24 08:02:26;;;;;;;21.80;11.00;;;7.40;95.60;;;;;;5036114;28;20049;-55
2022/03/24 08:04:53;;;;;;;19.98;10.13;;;7.50;95.20;;;;;;5024525;28;20045;-56
2022/03/24 08:07:21;;;;;;;23.48;10.27;;;7.60;95.10;;;;;;5029377;28;20045;-57
2022/03/24 08:09:50;;;;;;;20.20;10.80;;;7.70;95.10;;;;;;5025521;28;20488;-55
2022/03/24 08:12:17;;;;;;;19.05;10.35;;;7.80;95.40;;;;;;5025541;28;20056;-56
2022/03/24 08:14:44;;;;;;;23.52;10.55;;;8.00;95.20;;;;;;5025869;28;20045;-58
2022/03/24 08:17:11;;;;;;;22.80;10.32;;;8.10;95.00;;;;;;5026363;28;20080;-55
2022/03/24 08:19:38;;;;;;;16.65;10.10;;;8.20;94.90;;;;;;5027874;28;20476;-57
2022/03/24 08:22:05;;;;;;;21.73;11.13;;;8.30;94.70;;;;;;5031552;28;20044;-56
2022/03/24 08:24:32;;;;;;;23.88;10.68;;;8.40;94.30;;;;;;5036578;28;20915;-56
2022/03/24 08:26:59;;;;;;;23.58;11.07;;;8.50;94.10;;;;;;5033287;28;20140;-57
2022/03/24 08:29:25;;;;;;;28.40;13.73;;;8.60;93.90;;;;;;5044081;28;20072;-57
2022/03/24 08:31:52;;;;;;;23.33;13.07;;;8.70;93.90;;;;;;5029746;28;20085;-57
2022/03/24 08:34:19;;;;;;;24.33;12.02;;;8.90;94.30;;;;;;5035186;28;20053;-58
2022/03/24 08:36:46;;;;;;;30.88;14.05;;;9.00;93.90;;;;;;5028340;28;20149;-58
2022/03/24 08:39:13;;;;;;;27.42;12.90;;;9.20;93.60;;;;;;5042265;28;20084;-57
2022/03/24 08:41:39;;;;;;;26.65;12.65;;;9.40;93.60;;;;;;5034174;28;20041;-57
2022/03/24 08:44:06;;;;;;;29.27;13.40;;;9.50;93.80;;;;;;5031658;28;20054;-56
2022/03/24 08:46:33;;;;;;;29.58;13.20;;;9.60;94.00;;;;;;5037678;28;20100;-57
2022/03/24 08:49:00;;;;;;;27.85;12.57;;;9.70;93.60;;;;;;5032585;28;20558;-57
2022/03/24 08:51:27;;;;;;;36.25;12.27;;;9.80;93.70;;;;;;5032255;28;20114;-56
2022/03/24 08:53:54;;;;;;;26.08;11.98;;;9.90;93.40;;;;;;5030835;28;20080;-57
2022/03/24 08:56:22;;;;;;;21.00;10.43;;;10.10;93.00;;;;;;5028857;28;20082;-59
2022/03/24 08:58:49;;;;;;;20.52;11.02;;;10.20;92.10;;;;;;5036958;28;20104;-56
2022/03/24 09:01:16;;;;;;;19.95;10.82;;;10.40;91.00;;;;;;5029662;28;20098;-53
2022/03/24 09:03:43;;;;;;;21.00;11.75;;;10.60;91.10;;;;;;5037586;28;20067;-56
2022/03/24 09:06:11;;;;;;;24.98;11.75;;;10.70;91.10;;;;;;5030866;28;20041;-55
2022/03/24 09:08:38;;;;;;;32.53;15.65;;;10.80;91.10;;;;;;5035370;28;20085;-54
2022/03/24 09:11:05;;;;;;;21.63;13.30;;;11.00;91.50;;;;;;5025756;28;20374;-57
2022/03/24 09:13:32;;;;;;;26.48;13.60;;;11.10;91.40;;;;;;5036566;28;20390;-58
2022/03/24 09:15:59;;;;;;;24.65;12.88;;;11.20;91.40;;;;;;5042975;28;20041;-58
2022/03/24 09:18:26;;;;;;;30.55;13.40;;;11.30;91.10;;;;;;5032951;28;20053;-56
2022/03/24 09:20:53;;;;;;;23.80;12.82;;;11.60;90.90;;;;;;5026144;28;20042;-58
2022/03/24 09:23:21;;;;;;;36.13;15.23;;;12.00;90.40;;;;;;5025337;28;20045;-57
2022/03/24 09:25:48;;;;;;;34.60;15.40;;;12.40;88.80;;;;;;5026345;28;20054;-57
2022/03/24 09:28:15;;;;;;;31.52;14.45;;;12.80;88.70;;;;;;5024811;28;20135;-58
2022/03/24 09:30:42;;;;;;;41.28;15.32;;;13.20;87.50;;;;;;5025795;28;20065;-57
2022/03/24 09:33:09;;;;;;;24.77;12.80;;;13.50;86.80;;;;;;5026017;28;20049;-57
2022/03/24 09:35:36;;;;;;;27.85;14.40;;;13.90;86.40;;;;;;5026481;28;20103;-57
2022/03/24 09:38:03;;;;;;;30.85;13.93;;;14.30;85.40;;;;;;5026090;28;20088;-56
2022/03/24 09:40:30;;;;;;;26.30;14.55;;;14.50;84.00;;;;;;5029723;28;20211;-60
2022/03/24 09:42:58;;;;;;;30.67;14.30;;;14.70;83.50;;;;;;5032855;28;20045;-57
2022/03/24 09:45:25;;;;;;;30.25;13.90;;;15.00;82.50;;;;;;5042928;28;20480;-57
2022/03/24 09:47:51;;;;;;;27.95;13.90;;;15.20;81.40;;;;;;5016543;28;21041;-59
2022/03/24 09:50:18;;;;;;;33.30;14.70;;;15.30;81.30;;;;;;5040112;28;20077;-59
2022/03/24 09:52:45;;;;;;;28.33;14.10;;;15.10;79.90;;;;;;5025955;28;20133;-58
2022/03/24 09:55:16;;;;;;;30.95;15.07;;;14.70;79.10;;;;;;5033411;28;20042;-59
2022/03/24 09:57:49;;;;;;;25.45;13.50;;;14.50;79.60;;;;;;5031700;28;20049;-58
2022/03/24 10:00:36;;;;;;;26.83;13.70;;;14.40;77.30;;;;;;5042645;28;20131;-57
2022/03/24 10:03:16;;;;;;;25.10;13.95;;;14.30;78.80;;;;;;5033876;28;20045;-57
2022/03/24 10:06:07;;;;;;;27.60;13.75;;;14.30;77.00;;;;;;5040707;28;20076;-60
2022/03/24 10:08:35;;;;;;;33.50;15.73;;;14.40;73.40;;;;;;5032907;28;20040;-58
2022/03/24 10:11:09;;;;;;;25.88;13.00;;;14.40;77.80;;;;;;5039581;28;20068;-58
2022/03/24 10:13:41;;;;;;;33.80;15.00;;;14.40;73.00;;;;;;5032660;28;20060;-59
2022/03/24 10:16:12;;;;;;;24.50;14.02;;;14.50;64.90;;;;;;5046145;28;20110;-58
2022/03/24 10:19:27;;;;;;;31.75;14.93;;;14.40;74.20;;;;;;5045244;28;20045;-57
2022/03/24 10:21:53;;;;;;;43.95;14.48;;;14.40;66.10;;;;;;5039633;28;20056;-58
2022/03/24 10:24:21;;;;;;;31.75;12.50;;;14.40;74.30;;;;;;5035419;28;20053;-60
2022/03/24 10:27:02;;;;;;;29.75;11.88;;;14.40;73.30;;;;;;5042521;28;20045;-60
2022/03/24 10:29:30;;;;;;;24.38;9.35;;;14.50;70.40;;;;;;5045416;28;20326;-57
2022/03/24 10:31:58;;;;;;;17.58;8.77;;;14.50;70.80;;;;;;5038823;28;20056;-57
2022/03/24 10:34:40;;;;;;;17.80;8.52;;;14.50;68.60;;;;;;5034236;28;20098;-57
2022/03/24 10:37:09;;;;;;;17.55;8.32;;;14.50;60.20;;;;;;5039153;28;20098;-57
2022/03/24 10:39:37;;;;;;;13.73;6.68;;;14.50;66.80;;;;;;5036637;28;20124;-57
2022/03/24 10:42:17;;;;;;;22.83;7.85;;;14.50;65.70;;;;;;5039871;28;20053;-55
2022/03/24 10:45:04;;;;;;;16.85;8.07;;;14.50;59.00;;;;;;5031595;28;20081;-59
2022/03/24 10:47:55;;;;;;;23.17;8.00;;;14.50;56.80;;;;;;5038397;28;20049;-59
2022/03/24 10:50:22;;;;;;;17.88;8.93;;;14.60;58.30;;;;;;5033649;28;20040;-58
2022/03/24 10:52:51;;;;;;;20.52;8.63;;;14.60;62.80;;;;;;5031804;28;20057;-58
2022/03/24 10:55:36;;;;;;;19.23;9.50;;;14.60;63.70;;;;;;5014131;28;20119;-56
2022/03/24 10:58:04;;;;;;;19.83;8.88;;;14.60;54.40;;;;;;5036478;28;20049;-57
2022/03/24 11:00:31;;;;;;;14.18;7.75;;;14.60;62.00;;;;;;5031170;28;20045;-57
2022/03/24 11:02:58;;;;;;;17.70;8.43;;;14.70;60.50;;;;;;5037341;28;20049;-56
2022/03/24 11:05:26;;;;;;;21.08;9.27;;;14.80;60.20;;;;;;5034202;28;20045;-56
2022/03/24 11:07:56;;;;;;;23.10;10.40;;;14.90;61.40;;;;;;5036797;28;20107;-61
2022/03/24 11:10:23;;;;;;;23.63;9.13;;;15.00;60.80;;;;;;5029948;28;20042;-58
2022/03/24 11:12:55;;;;;;;18.55;11.40;;;15.10;61.60;;;;;;5031730;28;20061;-57
2022/03/24 11:15:22;;;;;;;20.05;9.45;;;15.00;57.40;;;;;;5029709;28;20041;-60
2022/03/24 11:17:50;;;;;;;15.13;9.70;;;15.00;59.30;;;;;;5043256;28;20049;-59
2022/03/24 11:20:22;;;;;;;16.38;8.55;;;15.10;57.70;;;;;;5040343;28;20546;-58
2022/03/24 11:23:02;;;;;;;17.23;9.77;;;15.10;58.30;;;;;;5033800;28;20671;-56
2022/03/24 11:25:29;;;;;;;18.77;8.38;;;15.20;51.90;;;;;;5038591;28;20053;-57
2022/03/24 11:27:56;;;;;;;14.23;8.77;;;15.30;56.40;;;;;;5039860;28;20563;-58
2022/03/24 11:30:23;;;;;;;23.13;9.48;;;15.30;55.90;;;;;;5039586;28;20527;-58
2022/03/24 11:32:53;;;;;;;15.90;8.60;;;15.40;54.20;;;;;;5034316;28;20455;-59
2022/03/24 11:35:20;;;;;;;21.30;9.07;;;15.50;52.60;;;;;;5028464;28;20080;-60
2022/03/24 11:37:48;;;;;;;15.40;8.95;;;15.50;53.90;;;;;;5030570;28;20045;-58
2022/03/24 11:40:32;;;;;;;23.33;8.35;;;15.50;53.50;;;;;;5036388;28;20126;-58
2022/03/24 11:43:08;;;;;;;17.13;9.55;;;15.60;45.80;;;;;;5037451;28;20076;-59
2022/03/24 11:45:59;;;;;;;15.02;9.73;;;15.60;53.50;;;;;;5026450;28;20128;-57
2022/03/24 11:48:33;;;;;;;21.88;10.32;;;15.70;51.10;;;;;;5033835;28;20083;-58
2022/03/24 11:51:06;;;;;;;23.88;9.77;;;15.70;50.40;;;;;;5036863;28;20080;-56
2022/03/24 11:53:35;;;;;;;17.00;10.57;;;15.80;50.30;;;;;;5041041;28;20134;-56
2022/03/24 11:56:09;;;;;;;18.67;10.52;;;15.80;51.50;;;;;;5026290;28;20053;-57
2022/03/24 11:58:36;;;;;;;22.38;8.98;;;15.80;51.60;;;;;;5039321;28;20037;-57
2022/03/24 12:01:19;;;;;;;16.83;10.23;;;15.90;52.00;;;;;;5026583;28;20089;-57
2022/03/24 12:03:54;;;;;;;20.63;9.63;;;15.90;47.70;;;;;;5031425;28;20107;-56
2022/03/24 12:06:42;;;;;;;19.52;10.35;;;16.00;50.10;;;;;;5027785;28;20045;-59
2022/03/24 12:09:13;;;;;;;22.42;10.77;;;16.10;45.70;;;;;;5040232;28;20075;-58
2022/03/24 12:11:44;;;;;;;16.98;9.45;;;16.00;49.50;;;;;;5027659;28;20041;-58
2022/03/24 12:14:12;;;;;;;18.45;9.98;;;16.00;47.30;;;;;;5039766;28;20076;-57
2022/03/24 12:16:41;;;;;;;19.05;9.40;;;16.00;50.40;;;;;;5027455;28;20050;-57
2022/03/24 12:19:41;;;;;;;23.60;10.10;;;16.00;49.00;;;;;;5037671;28;20334;-58
2022/03/24 12:22:26;;;;;;;25.77;10.02;;;16.10;47.50;;;;;;5027120;28;20072;-57
2022/03/24 12:24:59;;;;;;;14.32;8.93;;;16.20;45.10;;;;;;5042170;28;20044;-58
2022/03/24 12:27:27;;;;;;;20.38;9.82;;;16.20;50.00;;;;;;5037701;28;20360;-60
2022/03/24 12:30:17;;;;;;;17.30;8.98;;;16.30;48.50;;;;;;5035070;28;20079;-59
2022/03/24 12:32:59;;;;;;;19.33;10.13;;;16.40;42.50;;;;;;5034473;28;20107;-57
2022/03/24 12:35:43;;;;;;;18.42;9.82;;;16.50;48.80;;;;;;5031829;28;20080;-57
2022/03/24 12:38:43;;;;;;;19.50;9.10;;;16.40;45.40;;;;;;5027109;28;20295;-57
2022/03/24 12:41:10;;;;;;;25.08;10.23;;;16.50;42.80;;;;;;5023456;28;20131;-58
2022/03/24 12:43:41;;;;;;;21.15;10.35;;;16.50;45.60;;;;;;5032703;28;20041;-60
2022/03/24 12:46:40;;;;;;;16.92;9.05;;;16.50;44.40;;;;;;4687357;28;9999764;-57